createdAt,value
2018-03-14T00:01:02.410Z,2.70
2018-03-14T00:03:29.968Z,2.50
2018-03-14T00:05:57.538Z,2.50
2018-03-14T00:08:25.100Z,2.70
2018-03-14T00:10:52.689Z,2.33
2018-03-14T00:13:21.034Z,2.63
2018-03-14T00:15:48.601Z,2.70
2018-03-14T00:18:16.222Z,2.93
2018-03-14T00:20:43.799Z,2.53
2018-03-14T00:23:11.394Z,2.57
2018-03-14T00:25:38.943Z,2.53
2018-03-14T00:28:06.501Z,2.27
2018-03-14T00:30:34.210Z,2.23
2018-03-14T00:33:01.838Z,2.60
2018-03-14T00:35:29.406Z,2.80
2018-03-14T00:37:56.987Z,2.20
2018-03-14T00:40:24.551Z,2.23
2018-03-14T00:42:52.118Z,2.50
2018-03-14T00:45:19.689Z,2.40
2018-03-14T00:47:47.280Z,2.43
2018-03-14T00:50:14.826Z,2.27
2018-03-14T00:52:42.393Z,2.40
2018-03-14T00:55:09.967Z,2.23
2018-03-14T00:57:37.533Z,2.53
2018-03-14T01:00:05.123Z,2.40
2018-03-14T01:02:33.446Z,2.30
2018-03-14T01:05:00.976Z,2.60
2018-03-14T01:07:29.307Z,2.30
2018-03-14T01:09:56.871Z,2.20
2018-03-14T01:12:24.468Z,2.40
2018-03-14T01:14:52.289Z,2.40
2018-03-14T01:17:19.856Z,2.20
2018-03-14T01:19:47.427Z,2.33
2018-03-14T01:22:15.186Z,2.30
2018-03-14T01:24:42.773Z,2.10
2018-03-14T01:27:10.338Z,2.47
2018-03-14T01:29:37.910Z,2.10
2018-03-14T01:32:05.481Z,2.20
2018-03-14T01:34:33.046Z,2.20
2018-03-14T01:37:00.627Z,2.30
2018-03-14T01:39:28.197Z,2.40
2018-03-14T01:41:55.759Z,2.13
2018-03-14T01:44:23.424Z,1.97
2018-03-14T01:46:50.977Z,1.93
2018-03-14T01:49:19.022Z,2.03
2018-03-14T01:51:46.583Z,2.23
2018-03-14T01:54:14.151Z,1.90
2018-03-14T01:56:41.725Z,2.03
2018-03-14T01:59:09.299Z,2.30
2018-03-14T02:01:36.881Z,2.27
2018-03-14T02:04:04.465Z,1.80
2018-03-14T02:06:32.028Z,1.90
2018-03-14T02:08:59.602Z,2.10
2018-03-14T02:11:27.285Z,2.30
2018-03-14T02:13:56.008Z,1.90
2018-03-14T02:16:23.565Z,1.90
2018-03-14T02:18:51.890Z,2.07
2018-03-14T02:21:19.460Z,2.10
2018-03-14T02:23:47.140Z,2.10
2018-03-14T02:26:14.731Z,2.10
2018-03-14T02:28:43.054Z,2.13
2018-03-14T02:31:10.627Z,1.80
2018-03-14T02:33:38.276Z,1.90
2018-03-14T02:36:05.934Z,1.90
2018-03-14T02:38:33.541Z,1.90
2018-03-14T02:41:01.105Z,2.00
2018-03-14T02:43:28.666Z,2.00
2018-03-14T02:45:57.198Z,2.00
2018-03-14T02:48:24.747Z,2.03
2018-03-14T02:50:52.329Z,2.03
2018-03-14T02:53:19.899Z,2.20
2018-03-14T02:55:48.231Z,1.97
2018-03-14T02:58:15.880Z,2.10
2018-03-14T03:00:43.447Z,2.00
2018-03-14T03:03:11.025Z,2.40
2018-03-14T03:05:38.589Z,2.00
2018-03-14T03:08:06.240Z,1.90
2018-03-14T03:10:33.836Z,1.97
2018-03-14T03:13:01.404Z,1.80
2018-03-14T03:15:29.001Z,2.17
2018-03-14T03:17:56.637Z,2.03
2018-03-14T03:20:24.196Z,2.10
2018-03-14T03:22:51.755Z,2.00
2018-03-14T03:25:19.404Z,2.33
2018-03-14T03:27:46.998Z,2.13
2018-03-14T03:30:14.552Z,1.93
2018-03-14T03:32:42.112Z,2.10
2018-03-14T03:35:09.726Z,1.63
2018-03-14T03:37:37.286Z,1.90
2018-03-14T03:40:04.863Z,1.93
2018-03-14T03:42:32.430Z,1.80
2018-03-14T03:45:00.005Z,2.07
2018-03-14T03:47:28.347Z,1.97
2018-03-14T03:49:55.905Z,2.20
2018-03-14T03:52:23.517Z,2.20
2018-03-14T03:54:51.140Z,1.80
2018-03-14T03:57:18.694Z,1.80
2018-03-14T03:59:46.279Z,2.20
2018-03-14T04:02:13.920Z,2.00
2018-03-14T04:04:41.496Z,2.00
2018-03-14T04:07:09.062Z,2.17
2018-03-14T04:09:36.671Z,2.00
2018-03-14T04:12:04.224Z,2.20
2018-03-14T04:14:31.808Z,2.17
2018-03-14T04:16:59.435Z,2.07
2018-03-14T04:19:27.007Z,1.80
2018-03-14T04:21:54.563Z,2.00
2018-03-14T04:24:22.213Z,2.20
2018-03-14T04:26:49.777Z,2.50
2018-03-14T04:29:17.742Z,2.50
2018-03-14T04:31:46.063Z,2.27
2018-03-14T04:34:13.610Z,2.00
2018-03-14T04:36:41.179Z,2.23
2018-03-14T04:39:08.793Z,2.23
2018-03-14T04:41:36.378Z,2.20
2018-03-14T04:44:04.716Z,2.10
2018-03-14T04:46:32.268Z,2.13
2018-03-14T04:48:59.818Z,2.13
2018-03-14T04:51:27.378Z,2.20
2018-03-14T04:53:54.962Z,2.40
2018-03-14T04:56:22.578Z,2.17
2018-03-14T04:58:50.100Z,2.30
2018-03-14T05:01:17.659Z,2.40
2018-03-14T05:03:45.213Z,2.10
2018-03-14T05:06:13.064Z,2.50
2018-03-14T05:08:40.648Z,2.30
2018-03-14T05:11:08.228Z,2.20
2018-03-14T05:13:35.780Z,2.70
2018-03-14T05:16:03.410Z,2.63
2018-03-14T05:18:31.773Z,2.53
2018-03-14T05:20:59.318Z,2.50
2018-03-14T05:23:26.905Z,2.63
2018-03-14T05:25:54.533Z,2.40
2018-03-14T05:28:22.096Z,2.50
2018-03-14T05:30:49.690Z,2.70
2018-03-14T05:33:17.255Z,2.87
2018-03-14T05:35:44.815Z,2.77
2018-03-14T05:38:12.378Z,2.60
2018-03-14T05:40:39.934Z,2.83
2018-03-14T05:43:07.675Z,3.10
2018-03-14T05:45:36.026Z,2.80
2018-03-14T05:48:03.582Z,2.70
2018-03-14T05:50:31.145Z,2.57
2018-03-14T05:52:58.714Z,2.70
2018-03-14T05:55:26.641Z,3.00
2018-03-14T05:57:54.200Z,2.60
2018-03-14T06:00:21.774Z,2.80
2018-03-14T06:02:49.343Z,2.60
2018-03-14T06:05:16.891Z,2.50
2018-03-14T06:07:45.242Z,2.77
2018-03-14T06:10:13.029Z,3.27
2018-03-14T06:12:41.352Z,2.70
2018-03-14T06:15:08.932Z,2.87
2018-03-14T06:17:36.489Z,3.10
2018-03-14T06:20:04.080Z,2.87
2018-03-14T06:22:31.748Z,2.60
2018-03-14T06:24:59.263Z,2.67
2018-03-14T06:27:26.842Z,2.70
2018-03-14T06:29:54.410Z,3.00
2018-03-14T06:32:21.999Z,2.90
2018-03-14T06:34:49.562Z,2.90
2018-03-14T06:37:17.119Z,2.67
2018-03-14T06:39:44.673Z,2.60
2018-03-14T06:42:12.245Z,2.87
2018-03-14T06:44:39.840Z,2.67
2018-03-14T06:47:07.566Z,2.90
2018-03-14T06:49:35.303Z,2.80
2018-03-14T06:52:02.861Z,2.80
2018-03-14T06:54:30.427Z,3.00
2018-03-14T06:56:58.016Z,2.60
2018-03-14T06:59:38.165Z,2.33
2018-03-14T07:02:18.400Z,2.87
2018-03-14T07:05:06.708Z,2.80
2018-03-14T07:07:34.286Z,2.73
2018-03-14T07:10:02.661Z,2.50
2018-03-14T07:12:30.231Z,2.73
2018-03-14T07:14:57.798Z,2.50
2018-03-14T07:17:25.369Z,2.33
2018-03-14T07:19:52.952Z,2.60
2018-03-14T07:22:20.523Z,2.63
2018-03-14T07:24:48.086Z,2.70
2018-03-14T07:27:16.415Z,2.70
2018-03-14T07:29:43.979Z,2.30
2018-03-14T07:32:11.561Z,2.90
2018-03-14T07:34:39.126Z,6.80
2018-03-14T07:37:06.706Z,9.27
2018-03-14T07:39:34.385Z,12.43
2018-03-14T07:42:01.939Z,18.20
2018-03-14T07:44:29.558Z,22.03
2018-03-14T07:46:57.889Z,25.53
2018-03-14T07:49:25.465Z,29.43
2018-03-14T07:51:53.031Z,29.57
2018-03-14T07:54:20.606Z,32.83
2018-03-14T07:56:48.202Z,82.50
2018-03-14T07:59:16.541Z,127.77
2018-03-14T08:01:44.460Z,47.73
2018-03-14T08:04:12.244Z,48.47
2018-03-14T08:06:39.818Z,46.57
2018-03-14T08:09:07.437Z,46.47
2018-03-14T08:11:35.300Z,42.87
2018-03-14T08:14:02.999Z,40.87
2018-03-14T08:16:31.372Z,41.23
2018-03-14T08:18:59.776Z,40.30
2018-03-14T08:21:28.141Z,37.43
2018-03-14T08:23:55.709Z,35.90
2018-03-14T08:26:24.177Z,37.27
2018-03-14T08:28:51.943Z,36.20
2018-03-14T08:31:20.105Z,32.40
2018-03-14T08:33:47.704Z,31.97
2018-03-14T08:36:15.276Z,33.27
2018-03-14T08:38:42.853Z,31.27
2018-03-14T08:41:11.202Z,31.80
2018-03-14T08:43:38.774Z,31.27
2018-03-14T08:46:06.344Z,29.13
2018-03-14T08:48:33.927Z,27.50
2018-03-14T08:51:02.271Z,28.87
2018-03-14T08:53:29.847Z,28.33
2018-03-14T08:55:57.418Z,26.60
2018-03-14T08:58:24.987Z,27.00
2018-03-14T09:00:52.588Z,27.10
2018-03-14T09:03:20.943Z,25.47
2018-03-14T09:05:48.502Z,24.37
2018-03-14T09:08:16.068Z,23.60
2018-03-14T09:10:43.650Z,23.23
2018-03-14T09:13:12.133Z,22.90
2018-03-14T09:15:39.725Z,23.63
2018-03-14T09:18:07.314Z,23.23
2018-03-14T09:20:34.928Z,21.57
2018-03-14T09:23:02.484Z,21.87
2018-03-14T09:25:30.858Z,21.47
2018-03-14T09:27:58.457Z,19.90
2018-03-14T09:30:26.807Z,21.90
2018-03-14T09:32:54.384Z,20.90
2018-03-14T09:35:21.977Z,20.13
2018-03-14T09:37:50.321Z,20.50
2018-03-14T09:40:17.896Z,18.67
2018-03-14T09:42:46.262Z,18.67
2018-03-14T09:45:13.906Z,17.13
2018-03-14T09:47:41.582Z,17.80
2018-03-14T09:50:09.176Z,17.70
2018-03-14T09:52:36.745Z,17.23
2018-03-14T09:55:04.314Z,18.10
2018-03-14T09:57:32.439Z,17.03
2018-03-14T09:59:59.999Z,16.63
2018-03-14T10:02:27.576Z,15.90
2018-03-14T10:04:55.168Z,17.17
2018-03-14T10:07:22.757Z,15.63
2018-03-14T10:09:50.326Z,16.27
2018-03-14T10:12:17.935Z,15.63
2018-03-14T10:14:45.485Z,15.83
2018-03-14T10:17:13.826Z,15.97
2018-03-14T10:19:41.424Z,14.17
2018-03-14T10:22:09.216Z,14.50
2018-03-14T10:24:37.560Z,14.17
2018-03-14T10:27:05.302Z,14.97
2018-03-14T10:29:32.875Z,14.10
2018-03-14T10:32:00.493Z,14.40
2018-03-14T10:34:28.838Z,14.40
2018-03-14T10:36:56.420Z,14.23
2018-03-14T10:39:23.994Z,13.77
2018-03-14T10:41:51.672Z,13.40
2018-03-14T10:44:20.038Z,14.20
2018-03-14T10:46:48.383Z,13.30
2018-03-14T10:49:15.970Z,12.80
2018-03-14T10:51:43.563Z,12.63
2018-03-14T10:54:11.145Z,12.53
2018-03-14T10:56:39.473Z,12.87
2018-03-14T10:59:07.046Z,12.70
2018-03-14T11:01:40.263Z,12.33
2018-03-14T11:04:07.845Z,11.90
2018-03-14T11:06:36.174Z,12.37
2018-03-14T11:09:03.741Z,12.07
2018-03-14T11:11:31.338Z,11.63
2018-03-14T11:13:58.930Z,11.00
2018-03-14T11:16:27.285Z,11.47
2018-03-14T11:18:54.854Z,11.60
2018-03-14T11:21:22.418Z,10.87
2018-03-14T11:23:50.002Z,10.93
2018-03-14T11:26:17.566Z,11.07
2018-03-14T11:28:45.126Z,9.90
2018-03-14T11:31:12.718Z,10.10
2018-03-14T11:33:40.287Z,10.37
2018-03-14T11:36:07.862Z,9.80
2018-03-14T11:38:35.719Z,9.73
2018-03-14T11:41:04.053Z,10.17
2018-03-14T11:43:31.612Z,8.97
2018-03-14T11:45:59.189Z,9.80
2018-03-14T11:48:26.764Z,9.07
2018-03-14T11:50:54.337Z,9.17
2018-03-14T11:53:22.191Z,8.50
2018-03-14T11:55:49.751Z,8.37
2018-03-14T11:58:17.302Z,8.10
2018-03-14T12:00:44.904Z,7.97
2018-03-14T12:03:12.461Z,7.97
2018-03-14T12:05:40.027Z,7.70
2018-03-14T12:08:07.744Z,8.47
2018-03-14T12:10:36.074Z,8.30
2018-03-14T12:13:03.640Z,7.90
2018-03-14T12:15:31.240Z,8.20
2018-03-14T12:17:58.813Z,12.57
2018-03-14T12:20:27.138Z,18.73
2018-03-14T12:22:54.730Z,12.80
2018-03-14T12:25:22.294Z,13.10
2018-03-14T12:27:49.850Z,12.20
2018-03-14T12:30:17.537Z,12.63
2018-03-14T12:32:45.129Z,12.47
2018-03-14T12:35:13.463Z,12.43
2018-03-14T12:37:41.050Z,11.47
2018-03-14T12:40:08.651Z,12.80
2018-03-14T12:42:37.009Z,12.27
2018-03-14T12:45:04.611Z,11.57
2018-03-14T12:47:32.929Z,12.13
2018-03-14T12:50:00.495Z,11.90
2018-03-14T12:52:28.332Z,10.47
2018-03-14T12:54:55.901Z,10.97
2018-03-14T12:57:23.493Z,10.47
2018-03-14T12:59:51.074Z,12.43
2018-03-14T13:02:18.647Z,11.23
2018-03-14T13:04:46.219Z,10.50
2018-03-14T13:07:14.059Z,11.17
2018-03-14T13:09:41.682Z,10.90
2018-03-14T13:12:10.011Z,11.20
2018-03-14T13:14:37.597Z,10.63
2018-03-14T13:17:05.172Z,11.43
2018-03-14T13:19:32.743Z,10.60
2018-03-14T13:22:00.431Z,11.13
2018-03-14T13:24:28.018Z,11.30
2018-03-14T13:26:55.803Z,10.83
2018-03-14T13:29:23.390Z,9.80
2018-03-14T13:31:50.974Z,11.03
2018-03-14T13:34:18.557Z,9.93
2018-03-14T13:36:46.159Z,10.23
2018-03-14T13:39:13.722Z,9.87
2018-03-14T13:41:41.285Z,9.27
2018-03-14T13:44:08.888Z,9.70
2018-03-14T13:46:36.479Z,10.20
2018-03-14T13:49:04.078Z,9.90
2018-03-14T13:51:31.670Z,9.53
2018-03-14T13:53:59.220Z,9.50
2018-03-14T13:56:26.784Z,8.43
2018-03-14T13:58:54.354Z,9.07
2018-03-14T14:01:21.923Z,6.87
2018-03-14T14:03:49.524Z,7.27
2018-03-14T14:06:17.102Z,6.50
2018-03-14T14:08:45.121Z,6.43
2018-03-14T14:11:12.692Z,5.70
2018-03-14T14:13:40.339Z,5.30
2018-03-14T14:16:08.703Z,5.20
2018-03-14T14:18:36.296Z,4.63
2018-03-14T14:21:04.617Z,4.97
2018-03-14T14:23:32.183Z,4.50
2018-03-14T14:25:59.744Z,5.47
2018-03-14T14:28:27.341Z,5.87
2018-03-14T14:30:54.910Z,5.53
2018-03-14T14:33:22.474Z,5.70
2018-03-14T14:35:50.172Z,5.77
2018-03-14T14:38:18.503Z,5.70
2018-03-14T14:40:46.086Z,5.33
2018-03-14T14:43:14.404Z,5.50
2018-03-14T14:45:42.754Z,4.87
2018-03-14T14:48:10.428Z,4.87
2018-03-14T14:50:37.995Z,4.93
2018-03-14T14:53:05.592Z,4.67
2018-03-14T14:55:33.906Z,5.20
2018-03-14T14:58:01.478Z,4.67
2018-03-14T15:00:29.029Z,5.10
2018-03-14T15:02:56.586Z,4.80
2018-03-14T15:05:24.172Z,4.47
2018-03-14T15:07:51.755Z,4.43
2018-03-14T15:10:19.336Z,4.57
2018-03-14T15:12:46.914Z,4.60
2018-03-14T15:15:14.467Z,4.70
2018-03-14T15:17:42.370Z,4.57
2018-03-14T15:20:10.764Z,4.50
2018-03-14T15:22:38.497Z,4.80
2018-03-14T15:25:06.083Z,4.57
2018-03-14T15:27:34.433Z,7.60
2018-03-14T15:30:02.017Z,5.73
2018-03-14T15:32:29.597Z,8.87
2018-03-14T15:34:57.948Z,5.50
2018-03-14T15:37:25.530Z,5.50
2018-03-14T15:39:53.103Z,5.00
2018-03-14T15:42:20.682Z,5.33
2018-03-14T15:44:49.006Z,4.47
2018-03-14T15:47:16.565Z,4.97
2018-03-14T15:49:44.153Z,4.93
2018-03-14T15:52:11.823Z,4.70
2018-03-14T15:54:39.576Z,4.73
2018-03-14T15:57:07.228Z,4.87
2018-03-14T15:59:35.534Z,4.57
2018-03-14T16:02:03.103Z,4.70
2018-03-14T16:04:30.688Z,4.60
2018-03-14T16:06:58.256Z,4.50
2018-03-14T16:09:25.836Z,4.37
2018-03-14T16:11:53.566Z,3.80
2018-03-14T16:14:21.162Z,4.27
2018-03-14T16:16:48.763Z,3.97
2018-03-14T16:19:16.371Z,4.47
2018-03-14T16:21:44.208Z,4.90
2018-03-14T16:24:11.900Z,3.87
2018-03-14T16:26:39.511Z,4.17
2018-03-14T16:29:07.093Z,4.07
2018-03-14T16:31:34.756Z,4.23
2018-03-14T16:34:03.088Z,3.93
2018-03-14T16:36:30.678Z,3.50
2018-03-14T16:38:58.327Z,3.80
2018-03-14T16:41:25.914Z,3.77
2018-03-14T16:43:53.500Z,3.77
2018-03-14T16:46:21.848Z,3.80
2018-03-14T16:48:49.411Z,3.93
2018-03-14T16:51:16.976Z,4.23
2018-03-14T16:53:44.619Z,3.80
2018-03-14T16:56:12.190Z,4.37
2018-03-14T16:58:39.759Z,4.37
2018-03-14T17:01:07.378Z,3.60
2018-03-14T17:03:35.831Z,4.13
2018-03-14T17:06:03.403Z,3.97
2018-03-14T17:08:31.058Z,3.57
2018-03-14T17:10:58.625Z,3.83
2018-03-14T17:13:26.205Z,3.87
2018-03-14T17:15:54.117Z,3.60
2018-03-14T17:18:22.461Z,3.93
2018-03-14T17:20:50.040Z,3.67
2018-03-14T17:23:17.639Z,3.33
2018-03-14T17:25:45.220Z,3.50
2018-03-14T17:28:12.931Z,3.10
2018-03-14T17:30:40.559Z,3.40
2018-03-14T17:33:08.088Z,3.10
2018-03-14T17:35:36.419Z,3.30
2018-03-14T17:38:04.205Z,3.60
2018-03-14T17:40:31.797Z,3.30
2018-03-14T17:42:59.535Z,3.20
2018-03-14T17:45:27.121Z,3.13
2018-03-14T17:47:54.688Z,3.33
2018-03-14T17:50:22.270Z,2.90
2018-03-14T17:52:49.874Z,2.90
2018-03-14T17:55:17.437Z,3.20
2018-03-14T17:57:45.027Z,3.33
2018-03-14T18:00:12.810Z,3.20
2018-03-14T18:02:40.373Z,3.00
2018-03-14T18:05:07.973Z,2.93
2018-03-14T18:07:35.573Z,3.27
2018-03-14T18:10:03.132Z,3.70
2018-03-14T18:12:30.704Z,3.63
2018-03-14T18:14:58.325Z,3.13
2018-03-14T18:17:25.895Z,2.63
2018-03-14T18:19:53.467Z,2.90
2018-03-14T18:22:21.069Z,8.63
2018-03-14T18:24:48.654Z,11.40
2018-03-14T18:27:16.226Z,5.63
2018-03-14T18:29:43.828Z,4.10
2018-03-14T18:32:11.411Z,4.70
2018-03-14T18:34:39.744Z,3.60
2018-03-14T18:37:07.588Z,3.60
2018-03-14T18:39:35.173Z,3.67
2018-03-14T18:42:02.748Z,3.43
2018-03-14T18:44:30.398Z,3.73
2018-03-14T18:46:58.713Z,3.20
2018-03-14T18:49:26.280Z,3.33
2018-03-14T18:51:54.003Z,3.23
2018-03-14T18:54:21.591Z,3.37
2018-03-14T18:56:49.183Z,3.07
2018-03-14T18:59:16.887Z,3.10
2018-03-14T19:01:45.261Z,3.07
2018-03-14T19:04:12.926Z,3.03
2018-03-14T19:06:40.531Z,3.10
2018-03-14T19:09:08.191Z,3.17
2018-03-14T19:11:35.770Z,3.10
2018-03-14T19:14:03.390Z,2.67
2018-03-14T19:16:30.985Z,2.93
2018-03-14T19:18:58.575Z,3.10
2018-03-14T19:21:26.209Z,2.80
2018-03-14T19:23:54.559Z,3.00
2018-03-14T19:26:22.161Z,3.13
2018-03-14T19:28:50.559Z,2.60
2018-03-14T19:31:18.177Z,2.93
2018-03-14T19:33:45.782Z,2.97
2018-03-14T19:36:13.407Z,2.63
2018-03-14T19:38:41.165Z,2.60
2018-03-14T19:41:08.905Z,2.73
2018-03-14T19:43:36.537Z,2.67
2018-03-14T19:46:04.915Z,2.83
2018-03-14T19:48:32.595Z,2.70
2018-03-14T19:51:00.996Z,2.60
2018-03-14T19:53:28.606Z,5.10
2018-03-14T19:55:56.279Z,13.93
2018-03-14T19:58:24.013Z,7.73
2018-03-14T20:00:51.715Z,4.90
2018-03-14T20:03:19.335Z,4.00
2018-03-14T20:05:46.971Z,3.43
2018-03-14T20:08:14.558Z,3.43
2018-03-14T20:10:42.952Z,3.30
2018-03-14T20:13:11.424Z,3.37
2018-03-14T20:15:40.166Z,3.07
2018-03-14T20:18:07.791Z,3.87
2018-03-14T20:20:36.137Z,3.03
2018-03-14T20:23:03.767Z,2.80
2018-03-14T20:25:31.356Z,3.00
2018-03-14T20:27:59.111Z,2.70
2018-03-14T20:30:26.718Z,2.97
2018-03-14T20:32:54.328Z,3.23
2018-03-14T20:35:21.971Z,3.00
2018-03-14T20:37:50.419Z,2.80
2018-03-14T20:40:18.048Z,2.93
2018-03-14T20:42:45.694Z,2.80
2018-03-14T20:45:13.279Z,3.00
2018-03-14T20:47:41.015Z,2.70
2018-03-14T20:50:08.625Z,2.90
2018-03-14T20:52:36.337Z,2.83
2018-03-14T20:55:04.043Z,2.90
2018-03-14T20:57:32.424Z,2.57
2018-03-14T21:00:00.797Z,3.03
2018-03-14T21:02:29.154Z,2.40
2018-03-14T21:04:56.867Z,3.03
2018-03-14T21:07:25.216Z,2.67
2018-03-14T21:09:52.804Z,3.23
2018-03-14T21:12:21.163Z,2.60
2018-03-14T21:14:48.744Z,2.73
2018-03-14T21:17:16.355Z,2.40
2018-03-14T21:19:44.086Z,2.87
2018-03-14T21:22:12.419Z,2.53
2018-03-14T21:24:40.140Z,2.60
2018-03-14T21:27:08.490Z,2.63
2018-03-14T21:29:36.064Z,3.10
2018-03-14T21:32:03.977Z,3.00
2018-03-14T21:34:31.568Z,2.87
2018-03-14T21:36:59.151Z,2.40
2018-03-14T21:39:26.724Z,2.70
2018-03-14T21:41:54.402Z,2.27
2018-03-14T21:44:21.990Z,2.90
2018-03-14T21:46:49.557Z,2.60
2018-03-14T21:49:17.889Z,2.50
2018-03-14T21:51:45.455Z,2.90
2018-03-14T21:54:13.178Z,2.57
2018-03-14T21:56:41.593Z,2.60
2018-03-14T21:59:09.155Z,2.43
2018-03-14T22:01:36.774Z,2.80
2018-03-14T22:04:04.351Z,2.60
2018-03-14T22:06:31.947Z,3.00
2018-03-14T22:08:59.814Z,2.63
2018-03-14T22:11:28.245Z,2.50
2018-03-14T22:13:55.752Z,2.70
2018-03-14T22:16:24.082Z,2.63
2018-03-14T22:18:51.657Z,2.70
2018-03-14T22:21:19.243Z,2.80
2018-03-14T22:23:46.812Z,2.47
2018-03-14T22:26:14.370Z,2.50
2018-03-14T22:28:41.943Z,2.60
2018-03-14T22:31:09.670Z,2.43
2018-03-14T22:33:37.265Z,2.60
2018-03-14T22:36:04.854Z,2.40
2018-03-14T22:38:32.436Z,2.40
2018-03-14T22:41:00.920Z,2.60
2018-03-14T22:43:29.279Z,2.80
2018-03-14T22:45:57.012Z,3.10
2018-03-14T22:48:24.688Z,2.80
2018-03-14T22:50:52.264Z,2.70
2018-03-14T22:53:19.822Z,2.70
2018-03-14T22:55:47.400Z,2.40
2018-03-14T22:58:15.061Z,2.87
2018-03-14T23:00:42.593Z,2.40
2018-03-14T23:03:10.222Z,2.60
2018-03-14T23:05:37.781Z,2.70
2018-03-14T23:08:06.848Z,2.60
2018-03-14T23:10:34.438Z,2.70
2018-03-14T23:13:01.997Z,2.80
2018-03-14T23:15:29.555Z,2.50
2018-03-14T23:17:57.101Z,2.70
2018-03-14T23:20:24.669Z,2.70
2018-03-14T23:22:52.278Z,2.67
2018-03-14T23:25:20.060Z,2.80
2018-03-14T23:27:48.835Z,2.87
2018-03-14T23:30:16.420Z,2.50
2018-03-14T23:32:43.980Z,2.97
2018-03-14T23:35:11.545Z,2.40
2018-03-14T23:37:39.108Z,2.63
2018-03-14T23:40:06.765Z,2.80
2018-03-14T23:42:34.405Z,2.93
2018-03-14T23:45:01.975Z,2.90
2018-03-14T23:47:29.552Z,2.70
2018-03-14T23:49:57.138Z,2.90
2018-03-14T23:52:24.806Z,2.90
2018-03-14T23:54:52.365Z,3.00
2018-03-14T23:57:19.927Z,2.80
2018-03-14T23:59:47.566Z,2.70
